createdAt,value
2023-05-20T00:00:53.516Z,11.45
2023-05-20T00:03:20.881Z,11.58
2023-05-20T00:05:48.149Z,11.54
2023-05-20T00:08:15.749Z,11.51
2023-05-20T00:10:42.668Z,11.56
2023-05-20T00:13:09.598Z,11.55
2023-05-20T00:15:37.066Z,11.56
2023-05-20T00:18:04.812Z,11.49
2023-05-20T00:20:32.749Z,11.51
2023-05-20T00:22:59.889Z,11.46
2023-05-20T00:25:27.020Z,11.45
2023-05-20T00:27:53.935Z,11.48
2023-05-20T00:30:21.278Z,11.42
2023-05-20T00:32:48.388Z,11.43
2023-05-20T00:35:15.616Z,11.44
2023-05-20T00:37:42.967Z,11.40
2023-05-20T00:40:10.203Z,11.47
2023-05-20T00:42:37.152Z,11.36
2023-05-20T00:45:04.414Z,11.38
2023-05-20T00:47:33.692Z,11.34
2023-05-20T00:50:00.936Z,11.26
2023-05-20T00:52:30.637Z,11.33
2023-05-20T00:54:58.925Z,11.30
2023-05-20T00:57:26.399Z,11.34
2023-05-20T00:59:53.766Z,11.26
2023-05-20T01:02:21.100Z,11.26
2023-05-20T01:04:48.077Z,11.22
2023-05-20T01:07:18.622Z,11.15
2023-05-20T01:09:45.908Z,11.15
2023-05-20T01:12:26.515Z,11.05
2023-05-20T01:15:00.678Z,11.04
2023-05-20T01:17:31.477Z,11.06
2023-05-20T01:20:00.339Z,11.07
2023-05-20T01:22:28.217Z,11.07
2023-05-20T01:24:57.536Z,10.94
2023-05-20T01:27:26.815Z,10.91
2023-05-20T01:29:53.716Z,10.95
2023-05-20T01:32:23.418Z,10.96
2023-05-20T01:34:51.738Z,10.92
2023-05-20T01:37:19.927Z,10.90
2023-05-20T01:39:47.985Z,10.90
2023-05-20T01:42:15.736Z,10.93
2023-05-20T01:44:42.643Z,10.92
2023-05-20T01:47:09.552Z,10.90
2023-05-20T01:49:36.525Z,10.83
2023-05-20T01:52:04.104Z,10.80
2023-05-20T01:54:31.289Z,10.76
2023-05-20T01:56:58.812Z,10.74
2023-05-20T01:59:25.805Z,10.81
2023-05-20T02:01:52.905Z,10.72
2023-05-20T02:04:20.168Z,10.76
2023-05-20T02:06:47.137Z,10.78
2023-05-20T02:09:15.323Z,10.73
2023-05-20T02:11:42.249Z,10.66
2023-05-20T02:14:09.147Z,10.54
2023-05-20T02:16:38.874Z,10.57
2023-05-20T02:19:05.957Z,10.42
2023-05-20T02:21:32.978Z,10.39
2023-05-20T02:24:00.132Z,10.29
2023-05-20T02:26:29.128Z,10.14
2023-05-20T02:28:56.073Z,9.98
2023-05-20T02:31:23.194Z,9.82
2023-05-20T02:33:50.127Z,9.84
2023-05-20T02:36:17.583Z,9.88
2023-05-20T02:38:45.035Z,9.78
2023-05-20T02:41:11.941Z,9.79
2023-05-20T02:43:39.523Z,9.71
2023-05-20T02:46:07.107Z,9.56
2023-05-20T02:48:33.962Z,9.51
2023-05-20T02:51:01.150Z,9.37
2023-05-20T02:53:28.020Z,9.32
2023-05-20T02:55:55.554Z,9.41
2023-05-20T02:58:26.590Z,9.29
2023-05-20T03:00:53.911Z,9.23
2023-05-20T03:03:20.905Z,9.23
2023-05-20T03:05:47.871Z,9.24
2023-05-20T03:08:15.307Z,9.06
2023-05-20T03:10:42.277Z,9.06
2023-05-20T03:13:10.285Z,8.99
2023-05-20T03:15:40.017Z,9.00
2023-05-20T03:18:08.698Z,8.88
2023-05-20T03:20:40.314Z,8.85
2023-05-20T03:23:08.517Z,8.81
2023-05-20T03:25:37.678Z,8.83
2023-05-20T03:28:05.865Z,8.80
2023-05-20T03:30:35.418Z,8.73
2023-05-20T03:33:03.393Z,8.88
2023-05-20T03:35:30.439Z,8.95
2023-05-20T03:37:58.969Z,8.97
2023-05-20T03:40:26.269Z,8.90
2023-05-20T03:42:53.534Z,9.01
2023-05-20T03:45:23.211Z,9.02
2023-05-20T03:48:08.483Z,9.02
2023-05-20T03:50:36.170Z,8.95
2023-05-20T03:53:03.274Z,8.96
2023-05-20T03:55:36.983Z,9.04
2023-05-20T03:58:04.298Z,9.02
2023-05-20T04:00:32.512Z,9.06
2023-05-20T04:02:59.949Z,9.05
2023-05-20T04:05:27.239Z,9.16
2023-05-20T04:07:57.708Z,9.27
2023-05-20T04:10:25.444Z,9.33
2023-05-20T04:12:54.487Z,9.26
2023-05-20T04:15:24.153Z,9.29
2023-05-20T04:17:56.790Z,9.45
2023-05-20T04:20:24.681Z,9.52
2023-05-20T04:22:55.555Z,9.55
2023-05-20T04:25:23.044Z,9.57
2023-05-20T04:27:51.444Z,9.58
2023-05-20T04:30:18.959Z,9.50
2023-05-20T04:32:46.200Z,9.39
2023-05-20T04:35:14.081Z,9.37
2023-05-20T04:37:48.047Z,9.37
2023-05-20T04:40:15.269Z,9.38
2023-05-20T04:42:43.917Z,9.38
2023-05-20T04:45:12.720Z,9.52
2023-05-20T04:47:42.171Z,9.45
2023-05-20T04:50:16.661Z,9.41
2023-05-20T04:52:43.984Z,9.49
2023-05-20T04:55:12.212Z,9.46
2023-05-20T04:57:42.625Z,9.35
2023-05-20T05:00:11.011Z,9.23
2023-05-20T05:02:38.224Z,9.32
2023-05-20T05:05:06.276Z,9.39
2023-05-20T05:07:33.762Z,9.45
2023-05-20T05:10:01.519Z,9.72
2023-05-20T05:12:32.471Z,9.67
2023-05-20T05:14:59.764Z,9.59
2023-05-20T05:17:29.989Z,9.52
2023-05-20T05:19:58.548Z,9.48
2023-05-20T05:22:27.848Z,9.55
2023-05-20T05:24:56.220Z,9.57
2023-05-20T05:27:26.862Z,9.58
2023-05-20T05:30:18.203Z,9.51
2023-05-20T05:32:45.842Z,9.47
2023-05-20T05:35:12.943Z,9.48
2023-05-20T05:44:00.447Z,9.57
2023-05-20T05:46:28.668Z,9.55
2023-05-20T05:48:56.098Z,9.64
2023-05-20T05:51:25.350Z,9.70
2023-05-20T05:53:53.520Z,9.70
2023-05-20T05:56:22.026Z,9.72
2023-05-20T05:58:49.416Z,9.78
2023-05-20T06:01:18.950Z,9.87
2023-05-20T06:03:46.579Z,9.88
2023-05-20T06:06:15.339Z,9.95
2023-05-20T06:08:42.351Z,10.01
2023-05-20T06:11:11.202Z,10.10
2023-05-20T06:13:38.396Z,10.12
2023-05-20T06:16:05.545Z,10.21
2023-05-20T06:18:35.764Z,10.21
2023-05-20T06:21:06.376Z,10.21
2023-05-20T06:23:33.753Z,10.24
2023-05-20T06:26:04.454Z,10.21
2023-05-20T06:28:32.114Z,10.31
2023-05-20T06:30:59.278Z,10.34
2023-05-20T06:33:29.074Z,10.45
2023-05-20T06:36:02.942Z,10.50
2023-05-20T06:38:31.076Z,10.47
2023-05-20T06:40:59.954Z,10.45
2023-05-20T06:43:31.995Z,10.50
2023-05-20T06:46:09.260Z,10.59
2023-05-20T06:48:44.399Z,10.63
2023-05-20T06:51:11.735Z,10.68
2023-05-20T06:53:39.370Z,10.71
2023-05-20T06:56:06.841Z,10.81
2023-05-20T06:58:33.796Z,10.91
2023-05-20T07:01:01.069Z,10.93
2023-05-20T07:03:28.774Z,10.97
2023-05-20T07:05:55.773Z,11.08
2023-05-20T07:08:24.147Z,11.22
2023-05-20T07:10:51.222Z,11.31
2023-05-20T07:16:35.466Z,11.33
2023-05-20T07:19:03.418Z,11.38
2023-05-20T07:21:30.591Z,11.41
2023-05-20T07:24:06.053Z,11.47
2023-05-20T07:26:36.509Z,11.59
2023-05-20T07:29:04.738Z,11.76
2023-05-20T07:31:32.147Z,11.80
2023-05-20T07:33:59.858Z,11.94
2023-05-20T07:36:28.507Z,12.07
2023-05-20T07:39:03.991Z,12.05
2023-05-20T07:41:35.641Z,12.02
2023-05-20T07:44:04.796Z,12.04
2023-05-20T07:46:33.436Z,12.01
2023-05-20T07:49:00.705Z,12.17
2023-05-20T07:51:27.777Z,12.31
2023-05-20T07:53:54.792Z,12.46
2023-05-20T07:56:22.383Z,12.58
2023-05-20T07:58:54.512Z,12.58
2023-05-20T08:01:22.953Z,12.71
2023-05-20T08:03:50.365Z,12.74
2023-05-20T08:06:20.919Z,12.78
2023-05-20T08:08:48.527Z,12.80
2023-05-20T08:11:24.220Z,12.82
2023-05-20T08:13:52.089Z,12.77
2023-05-20T08:16:19.228Z,12.95
2023-05-20T08:18:46.316Z,12.99
2023-05-20T08:21:14.364Z,12.96
2023-05-20T08:23:41.625Z,12.98
2023-05-20T08:26:08.593Z,13.05
2023-05-20T08:28:38.498Z,13.15
2023-05-20T08:31:05.569Z,13.19
2023-05-20T08:33:33.177Z,13.18
2023-05-20T08:36:00.201Z,13.30
2023-05-20T08:38:27.185Z,13.42
2023-05-20T08:40:55.898Z,13.59
2023-05-20T08:43:24.106Z,13.65
2023-05-20T08:45:52.963Z,13.75
2023-05-20T08:48:23.212Z,13.80
2023-05-20T08:50:54.075Z,13.85
2023-05-20T08:53:22.500Z,13.85
2023-05-20T08:55:57.518Z,13.81
2023-05-20T08:58:26.088Z,14.08
2023-05-20T09:00:55.967Z,14.15
2023-05-20T09:03:24.240Z,14.28
2023-05-20T09:05:51.461Z,14.43
2023-05-20T09:08:18.481Z,14.55
2023-05-20T09:10:45.417Z,14.40
2023-05-20T09:13:12.476Z,14.27
2023-05-20T09:15:39.677Z,14.21
2023-05-20T09:18:08.166Z,14.24
2023-05-20T09:20:37.661Z,14.24
2023-05-20T09:23:06.712Z,14.24
2023-05-20T09:25:34.697Z,14.27
2023-05-20T09:28:06.459Z,14.26
2023-05-20T09:30:34.107Z,14.24
2023-05-20T09:33:01.824Z,14.36
2023-05-20T09:35:30.116Z,14.45
2023-05-20T09:37:58.472Z,14.49
2023-05-20T09:40:28.199Z,14.54
2023-05-20T09:42:57.138Z,14.43
2023-05-20T09:45:25.074Z,14.44
2023-05-20T09:47:53.557Z,14.44
2023-05-20T09:50:21.931Z,14.48
2023-05-20T09:52:50.094Z,14.51
2023-05-20T09:55:18.152Z,14.37
2023-05-20T09:57:46.155Z,14.35
2023-05-20T10:00:17.695Z,14.31
2023-05-20T10:02:48.193Z,14.19
2023-05-20T10:05:20.660Z,14.22
2023-05-20T10:08:29.578Z,14.26
2023-05-20T10:11:19.108Z,14.29
2023-05-20T10:13:55.066Z,14.36
2023-05-20T10:16:33.805Z,14.24
2023-05-20T10:22:04.385Z,14.29
2023-05-20T10:24:32.785Z,14.25
2023-05-20T10:27:03.110Z,14.28
2023-05-20T10:29:30.251Z,14.23
2023-05-20T10:31:57.504Z,14.40
2023-05-20T10:34:24.774Z,14.53
2023-05-20T10:36:55.028Z,14.65
2023-05-20T10:39:29.788Z,14.69
2023-05-20T10:42:10.474Z,14.85
2023-05-20T10:44:44.020Z,14.78
2023-05-20T10:49:45.206Z,14.75
2023-05-20T10:52:13.607Z,14.85
2023-05-20T10:54:45.656Z,14.96
2023-05-20T10:57:17.399Z,15.10
2023-05-20T10:59:44.760Z,15.24
2023-05-20T11:02:16.994Z,15.42
2023-05-20T11:04:45.027Z,15.58
2023-05-20T11:07:12.021Z,15.58
2023-05-20T11:09:41.513Z,15.58
2023-05-20T11:18:37.705Z,15.67
2023-05-20T11:24:28.702Z,15.87
2023-05-20T11:27:01.434Z,16.08
2023-05-20T11:29:32.676Z,16.16
2023-05-20T11:32:00.422Z,16.23
2023-05-20T11:34:34.468Z,16.28
2023-05-20T11:37:01.759Z,16.33
2023-05-20T11:39:32.072Z,16.43
2023-05-20T11:41:59.489Z,16.34
2023-05-20T11:44:26.663Z,16.15
2023-05-20T11:47:00.344Z,16.08
2023-05-20T11:49:27.332Z,16.08
2023-05-20T11:51:54.319Z,16.32
2023-05-20T11:54:22.795Z,16.47
2023-05-20T11:56:50.170Z,16.37
2023-05-20T11:59:17.064Z,16.26
2023-05-20T12:01:44.651Z,16.13
2023-05-20T12:04:14.163Z,16.01
2023-05-20T12:06:43.189Z,16.17
2023-05-20T12:09:10.803Z,16.06
2023-05-20T12:11:40.891Z,16.12
2023-05-20T12:14:08.820Z,16.21
2023-05-20T12:16:36.690Z,16.32
2023-05-20T12:19:04.559Z,16.50
2023-05-20T12:21:32.174Z,16.59
2023-05-20T12:23:59.870Z,16.71
2023-05-20T12:26:27.863Z,16.75
2023-05-20T12:28:55.605Z,16.76
2023-05-20T12:31:22.573Z,16.74
2023-05-20T12:33:49.747Z,16.94
2023-05-20T12:36:16.677Z,17.21
2023-05-20T12:38:43.660Z,17.51
2023-05-20T12:41:10.706Z,17.66
2023-05-20T12:43:37.874Z,17.69
2023-05-20T12:46:05.248Z,17.66
2023-05-20T12:48:32.238Z,18.06
2023-05-20T12:50:59.179Z,18.44
2023-05-20T12:53:26.412Z,18.60
2023-05-20T12:55:53.370Z,18.22
2023-05-20T12:58:20.287Z,18.03
2023-05-20T13:00:47.335Z,18.07
2023-05-20T13:03:14.605Z,18.40
2023-05-20T13:05:41.754Z,19.10
2023-05-20T13:08:10.630Z,19.09
2023-05-20T13:10:38.107Z,18.90
2023-05-20T13:13:05.255Z,18.97
2023-05-20T13:15:33.690Z,18.78
2023-05-20T13:18:01.838Z,18.51
2023-05-20T13:20:30.140Z,18.72
2023-05-20T13:22:57.332Z,19.00
2023-05-20T13:25:24.317Z,19.05
2023-05-20T13:27:51.290Z,19.45
2023-05-20T13:30:18.262Z,19.28
2023-05-20T13:32:46.441Z,19.65
2023-05-20T13:35:13.496Z,19.66
2023-05-20T13:37:40.394Z,19.62
2023-05-20T13:40:07.897Z,19.70
2023-05-20T13:42:34.876Z,19.08
2023-05-20T13:45:01.808Z,18.69
2023-05-20T13:47:29.660Z,18.68
2023-05-20T13:49:56.740Z,18.72
2023-05-20T13:52:23.719Z,19.30
2023-05-20T13:54:50.689Z,19.33
2023-05-20T13:57:17.632Z,19.32
2023-05-20T13:59:44.490Z,19.36
2023-05-20T14:02:11.833Z,19.56
2023-05-20T14:04:40.250Z,19.49
2023-05-20T14:07:09.591Z,19.63
2023-05-20T14:09:37.042Z,19.75
2023-05-20T14:12:04.836Z,19.67
2023-05-20T14:14:31.901Z,19.63
2023-05-20T14:17:01.546Z,20.05
2023-05-20T14:19:29.143Z,19.99
2023-05-20T14:21:56.128Z,19.60
2023-05-20T14:24:23.933Z,19.34
2023-05-20T14:26:50.939Z,19.23
2023-05-20T14:29:17.897Z,19.29
2023-05-20T14:31:45.180Z,19.80
2023-05-20T14:34:12.245Z,19.81
2023-05-20T14:36:39.416Z,19.84
2023-05-20T14:39:06.239Z,20.10
2023-05-20T14:41:33.036Z,20.30
2023-05-20T14:44:00.242Z,20.39
2023-05-20T14:46:27.276Z,20.03
2023-05-20T14:48:54.243Z,20.03
2023-05-20T14:51:21.076Z,19.81
2023-05-20T14:53:47.881Z,19.77
2023-05-20T14:56:14.745Z,19.80
2023-05-20T14:58:41.716Z,19.80
2023-05-20T15:01:08.682Z,19.89
2023-05-20T15:03:35.690Z,20.19
2023-05-20T15:06:02.777Z,20.51
2023-05-20T15:08:29.616Z,20.80
2023-05-20T15:10:56.846Z,20.44
2023-05-20T15:13:23.710Z,19.87
2023-05-20T15:15:50.520Z,19.67
2023-05-20T15:18:17.457Z,19.44
2023-05-20T15:20:44.880Z,19.86
2023-05-20T15:23:12.290Z,19.94
2023-05-20T15:25:39.095Z,20.13
2023-05-20T15:28:06.073Z,19.88
2023-05-20T15:30:33.224Z,19.41
2023-05-20T15:33:00.486Z,19.49
2023-05-20T15:35:27.413Z,19.62
2023-05-20T15:37:54.873Z,19.59
2023-05-20T15:40:22.322Z,20.04
2023-05-20T15:42:49.392Z,19.99
2023-05-20T15:45:16.406Z,19.77
2023-05-20T15:47:43.510Z,19.89
2023-05-20T15:50:11.501Z,19.90
2023-05-20T15:52:38.919Z,19.89
2023-05-20T15:55:06.678Z,20.11
2023-05-20T15:57:33.543Z,19.91
2023-05-20T16:00:00.843Z,19.61
2023-05-20T16:02:27.903Z,19.57
2023-05-20T16:04:54.907Z,19.74
2023-05-20T16:07:21.870Z,19.97
2023-05-20T16:09:48.759Z,20.16
2023-05-20T16:12:17.115Z,20.05
2023-05-20T16:14:44.938Z,20.18
2023-05-20T16:17:12.380Z,20.27
2023-05-20T16:19:39.316Z,20.10
2023-05-20T16:22:06.194Z,19.75
2023-05-20T16:24:33.009Z,20.04
2023-05-20T16:26:59.870Z,20.06
2023-05-20T16:29:26.686Z,20.08
2023-05-20T16:31:53.623Z,20.03
2023-05-20T16:34:20.528Z,20.13
2023-05-20T16:36:47.448Z,19.72
2023-05-20T16:39:15.300Z,19.75
2023-05-20T16:41:42.964Z,19.69
2023-05-20T16:44:10.539Z,20.06
2023-05-20T16:46:37.370Z,20.32
2023-05-20T16:49:04.186Z,20.45
2023-05-20T16:51:32.394Z,20.00
2023-05-20T16:53:59.193Z,19.87
2023-05-20T16:56:26.433Z,20.06
2023-05-20T16:58:53.459Z,20.06
2023-05-20T17:01:21.519Z,20.17
2023-05-20T17:03:48.820Z,20.22
2023-05-20T17:06:15.747Z,20.38
2023-05-20T17:08:42.596Z,20.38
2023-05-20T17:11:09.656Z,20.66
2023-05-20T17:13:36.519Z,20.51
2023-05-20T17:16:03.724Z,20.72
2023-05-20T17:18:31.753Z,20.64
2023-05-20T17:20:58.733Z,20.63
2023-05-20T17:23:25.778Z,20.74
2023-05-20T17:25:52.905Z,20.69
2023-05-20T17:28:19.852Z,20.77
2023-05-20T17:30:46.787Z,20.96
2023-05-20T17:33:14.251Z,20.97
2023-05-20T17:35:41.535Z,21.15
2023-05-20T17:38:08.437Z,21.03
2023-05-20T17:40:35.492Z,21.12
2023-05-20T17:43:02.565Z,21.11
2023-05-20T17:45:29.437Z,21.09
2023-05-20T17:47:56.387Z,20.51
2023-05-20T17:50:23.348Z,20.34
2023-05-20T17:52:50.224Z,20.14
2023-05-20T17:55:18.677Z,19.92
2023-05-20T17:57:45.704Z,19.74
2023-05-20T18:00:13.832Z,19.67
2023-05-20T18:02:46.443Z,19.57
2023-05-20T18:05:14.314Z,19.49
2023-05-20T18:07:41.605Z,19.43
2023-05-20T18:10:09.172Z,19.40
2023-05-20T18:12:36.341Z,19.43
2023-05-20T18:15:03.885Z,19.43
2023-05-20T18:17:32.692Z,19.20
2023-05-20T18:19:59.686Z,19.02
2023-05-20T18:22:35.557Z,18.96
2023-05-20T18:25:08.999Z,18.93
2023-05-20T18:27:35.985Z,18.85
2023-05-20T18:30:02.991Z,18.80
2023-05-20T18:32:31.461Z,18.66
2023-05-20T18:34:58.594Z,18.48
2023-05-20T18:37:27.597Z,18.44
2023-05-20T18:39:54.846Z,18.47
2023-05-20T18:42:21.760Z,18.38
2023-05-20T18:44:48.652Z,18.34
2023-05-20T18:47:17.084Z,18.32
2023-05-20T18:49:44.112Z,18.27
2023-05-20T18:52:11.115Z,18.25
2023-05-20T18:54:38.263Z,18.24
2023-05-20T18:57:05.462Z,18.22
2023-05-20T18:59:32.311Z,18.22
2023-05-20T19:01:59.295Z,18.18
2023-05-20T19:04:26.698Z,18.17
2023-05-20T19:06:53.571Z,18.09
2023-05-20T19:09:20.622Z,18.01
2023-05-20T19:11:47.468Z,17.99
2023-05-20T19:14:14.351Z,17.98
2023-05-20T19:16:41.351Z,17.93
2023-05-20T19:19:08.741Z,17.92
2023-05-20T19:21:35.607Z,17.88
2023-05-20T19:24:02.530Z,17.82
2023-05-20T19:26:29.397Z,17.79
2023-05-20T19:28:57.224Z,17.72
2023-05-20T19:31:24.088Z,17.68
2023-05-20T19:33:51.312Z,17.65
2023-05-20T19:36:18.470Z,17.62
2023-05-20T19:38:45.356Z,17.56
2023-05-20T19:41:12.913Z,17.46
2023-05-20T19:43:40.093Z,17.44
2023-05-20T19:46:07.073Z,17.39
2023-05-20T19:48:34.121Z,17.35
2023-05-20T19:51:01.697Z,17.26
2023-05-20T19:53:28.495Z,17.05
2023-05-20T19:55:55.361Z,16.98
2023-05-20T19:58:22.785Z,16.98
2023-05-20T20:00:49.627Z,17.06
2023-05-20T20:03:16.673Z,17.06
2023-05-20T20:05:43.633Z,16.99
2023-05-20T20:08:11.116Z,16.98
2023-05-20T20:10:38.122Z,17.03
2023-05-20T20:13:05.000Z,17.01
2023-05-20T20:15:32.297Z,17.02
2023-05-20T20:17:59.761Z,17.01
2023-05-20T20:20:27.254Z,17.00
2023-05-20T20:22:54.343Z,16.98
2023-05-20T20:25:21.253Z,16.98
2023-05-20T20:27:48.739Z,16.94
2023-05-20T20:30:16.144Z,16.95
2023-05-20T20:32:43.219Z,16.84
2023-05-20T20:35:11.132Z,16.88
2023-05-20T20:37:38.593Z,16.84
2023-05-20T20:40:13.941Z,16.85
2023-05-20T20:42:42.012Z,16.84
2023-05-20T20:45:09.462Z,16.79
2023-05-20T20:47:38.813Z,16.83
2023-05-20T20:50:06.511Z,16.86
2023-05-20T20:52:33.779Z,16.88
2023-05-20T20:55:00.758Z,16.84
2023-05-20T20:57:29.798Z,16.83
2023-05-20T20:59:58.627Z,16.84
2023-05-20T21:02:25.615Z,16.83
2023-05-20T21:04:52.545Z,16.78
2023-05-20T21:07:19.700Z,16.81
2023-05-20T21:09:46.629Z,16.76
2023-05-20T21:12:13.575Z,16.74
2023-05-20T21:14:40.498Z,16.75
2023-05-20T21:17:07.529Z,16.72
2023-05-20T21:19:34.979Z,16.68
2023-05-20T21:22:01.970Z,16.68
2023-05-20T21:24:28.882Z,16.67
2023-05-20T21:26:55.901Z,16.65
2023-05-20T21:29:22.837Z,16.65
2023-05-20T21:31:50.507Z,16.65
2023-05-20T21:34:17.354Z,16.61
2023-05-20T21:36:44.402Z,16.61
2023-05-20T21:39:11.577Z,16.60
2023-05-20T21:41:38.476Z,16.60
2023-05-20T21:44:05.616Z,16.57
2023-05-20T21:46:32.499Z,16.55
2023-05-20T21:48:59.351Z,16.53
2023-05-20T21:51:26.231Z,16.53
2023-05-20T21:53:53.299Z,16.48
2023-05-20T21:56:20.185Z,16.46
2023-05-20T21:58:47.038Z,16.42
2023-05-20T22:01:13.912Z,16.37
2023-05-20T22:03:48.796Z,16.36
2023-05-20T22:06:17.372Z,16.37
2023-05-20T22:08:44.513Z,16.30
2023-05-20T22:11:12.029Z,16.21
2023-05-20T22:13:43.462Z,16.25
2023-05-20T22:16:10.520Z,16.26
2023-05-20T22:18:38.639Z,16.21
2023-05-20T22:21:06.188Z,16.24
2023-05-20T22:23:33.036Z,16.17
2023-05-20T22:26:00.877Z,16.15
2023-05-20T22:28:28.039Z,16.13
2023-05-20T22:30:54.975Z,16.10
2023-05-20T22:33:23.122Z,16.06
2023-05-20T22:35:50.294Z,16.05
2023-05-20T22:38:17.286Z,16.04
2023-05-20T22:40:44.257Z,15.99
2023-05-20T22:43:13.444Z,15.98
2023-05-20T22:45:40.463Z,15.93
2023-05-20T22:48:07.903Z,15.93
2023-05-20T22:50:37.871Z,15.90
2023-05-20T22:53:04.800Z,15.89
2023-05-20T22:55:31.677Z,15.88
2023-05-20T22:57:58.528Z,15.83
2023-05-20T23:00:25.617Z,15.85
2023-05-20T23:02:52.711Z,15.87
2023-05-20T23:05:19.598Z,15.86
2023-05-20T23:07:46.590Z,15.83
2023-05-20T23:10:13.493Z,15.83
2023-05-20T23:12:40.396Z,15.81
2023-05-20T23:15:08.338Z,15.81
2023-05-20T23:17:35.304Z,15.83
2023-05-20T23:20:05.701Z,15.79
2023-05-20T23:22:33.096Z,15.77
2023-05-20T23:24:59.925Z,15.76
2023-05-20T23:27:26.836Z,15.74
2023-05-20T23:29:53.625Z,15.67
2023-05-20T23:32:20.672Z,15.65
2023-05-20T23:34:47.542Z,15.63
2023-05-20T23:37:14.456Z,15.64
2023-05-20T23:39:41.701Z,15.59
2023-05-20T23:42:08.576Z,15.47
2023-05-20T23:44:35.643Z,15.43
2023-05-20T23:47:03.961Z,15.42
2023-05-20T23:49:32.212Z,15.39
2023-05-20T23:51:59.099Z,15.26
2023-05-20T23:54:25.929Z,15.32
2023-05-20T23:56:52.927Z,15.30
2023-05-20T23:59:19.816Z,15.19
